Time;durP1;ratioP1;P1;durP2;ratioP2;P2;SDS_P1;SDS_P2;PMS_P1;PMS_P2;Temp;Humidity;BMP_temperature;BMP_pressure;BME280_temperature;BME280_humidity;BME280_pressure;Samples;Min_cycle;Max_cycle;Signal;HPM_P1;HPM_P2
2022/06/27 00:02:39;;;;;;;2.37;1.20;;;;;;;;;;4943089;28;20175;-85
2022/06/27 00:05:43;;;;;;;2.23;1.40;;;;;;;;;;4954127;28;20187;-84
2022/06/27 00:08:48;;;;;;;1.30;1.20;;;;;;;;;;4943074;28;20638;-85
2022/06/27 00:11:52;;;;;;;1.73;1.10;;;;;;;;;;4964643;28;20214;-84
2022/06/27 00:14:57;;;;;;;4.67;1.10;;;;;;;;;;4942684;28;20511;-84
2022/06/27 00:18:01;;;;;;;1.80;1.30;;;;;;;;;;4953758;28;20179;-85
2022/06/27 00:21:06;;;;;;;1.87;1.57;;;;;;;;;;4964315;28;20230;-85
2022/06/27 00:24:10;;;;;;;1.40;1.30;;;;;;;;;;4963886;28;20566;-85
2022/06/27 00:27:14;;;;;;;1.53;1.43;;;;;;;;;;4953050;28;20203;-85
2022/06/27 00:30:19;;;;;;;3.30;1.30;;;;;;;;;;4966291;28;20218;-85
2022/06/27 00:33:24;;;;;;;4.87;1.67;;;;;;;;;;4966122;28;20183;-85
2022/06/27 00:36:28;;;;;;;2.17;1.60;;;;;;;;;;4956079;28;20186;-84
2022/06/27 00:39:32;;;;;;;3.73;1.87;;;;;;;;;;4950940;28;20195;-86
2022/06/27 00:42:36;;;;;;;2.13;1.50;;;;;;;;;;4946786;29;20183;-86
2022/06/27 00:45:42;;;;;;;2.07;1.60;;;;;;;;;;4935741;29;20183;-84
2022/06/27 00:48:46;;;;;;;2.53;1.30;;;;;;;;;;4935490;29;20183;-86
2022/06/27 00:51:51;;;;;;;3.37;1.80;;;;;;;;;;4937475;29;20544;-82
2022/06/27 00:54:55;;;;;;;1.93;1.70;;;;;;;;;;4943708;28;20195;-82
2022/06/27 00:58:01;;;;;;;4.90;1.57;;;;;;;;;;4941001;29;20207;-82
2022/06/27 01:01:05;;;;;;;3.20;2.00;;;;;;;;;;4950853;28;20226;-82
2022/06/27 01:04:09;;;;;;;2.80;1.90;;;;;;;;;;4960262;28;20214;-82
2022/06/27 01:07:14;;;;;;;5.13;1.63;;;;;;;;;;4958633;28;20186;-82
2022/06/27 01:10:18;;;;;;;2.87;1.67;;;;;;;;;;4950558;28;20222;-82
2022/06/27 01:13:23;;;;;;;2.90;1.93;;;;;;;;;;4923080;29;20207;-82
2022/06/27 01:16:27;;;;;;;1.90;1.50;;;;;;;;;;4947943;28;20186;-82
2022/06/27 01:19:32;;;;;;;2.53;1.53;;;;;;;;;;4963904;28;20202;-82
2022/06/27 01:22:36;;;;;;;2.20;2.00;;;;;;;;;;4973202;28;20175;-82
2022/06/27 01:25:42;;;;;;;3.47;1.80;;;;;;;;;;4947612;29;20192;-82
2022/06/27 01:28:49;;;;;;;2.03;1.93;;;;;;;;;;4924959;29;20648;-83
2022/06/27 01:31:54;;;;;;;5.23;2.10;;;;;;;;;;4924243;29;20219;-83
2022/06/27 01:34:58;;;;;;;2.30;2.00;;;;;;;;;;4941784;28;20199;-82
2022/06/27 01:38:02;;;;;;;1.97;1.77;;;;;;;;;;4965256;28;20202;-82
2022/06/27 01:41:06;;;;;;;1.83;1.70;;;;;;;;;;4964586;28;20218;-83
2022/06/27 01:44:12;;;;;;;2.07;1.87;;;;;;;;;;4964674;28;20211;-84
2022/06/27 01:47:16;;;;;;;2.97;1.90;;;;;;;;;;4946711;29;20200;-84
2022/06/27 01:50:31;;;;;;;6.00;2.43;;;;;;;;;;4936656;29;20223;-84
2022/06/27 01:53:36;;;;;;;2.40;2.20;;;;;;;;;;4926063;29;20529;-84
2022/06/27 01:56:42;;;;;;;2.40;2.20;;;;;;;;;;4952520;28;20174;-84
2022/06/27 01:59:48;;;;;;;3.43;2.13;;;;;;;;;;4973368;28;20174;-84
2022/06/27 02:02:53;;;;;;;3.10;2.00;;;;;;;;;;4963282;28;20187;-84
2022/06/27 02:05:58;;;;;;;4.00;2.30;;;;;;;;;;4962712;28;20191;-84
2022/06/27 02:09:05;;;;;;;7.60;2.17;;;;;;;;;;4959009;28;20539;-84
2022/06/27 02:12:18;;;;;;;2.17;2.03;;;;;;;;;;4934363;29;20227;-84
2022/06/27 02:15:23;;;;;;;3.43;2.33;;;;;;;;;;4942505;29;20183;-84
2022/06/27 02:18:28;;;;;;;2.90;2.40;;;;;;;;;;4942615;29;20631;-84
2022/06/27 02:21:32;;;;;;;4.33;2.40;;;;;;;;;;4971714;28;20701;-84
2022/06/27 02:24:37;;;;;;;2.57;2.37;;;;;;;;;;4947192;28;20223;-83
2022/06/27 02:27:42;;;;;;;2.73;2.33;;;;;;;;;;4941428;29;20199;-84
2022/06/27 02:30:46;;;;;;;6.23;2.23;;;;;;;;;;4951862;29;20219;-84
2022/06/27 02:33:52;;;;;;;3.80;2.20;;;;;;;;;;4951863;29;20646;-86
2022/06/27 02:36:57;;;;;;;6.87;2.00;;;;;;;;;;4959822;28;20183;-87
2022/06/27 02:40:01;;;;;;;4.70;1.80;;;;;;;;;;4959683;28;20203;-84
2022/06/27 02:43:08;;;;;;;2.50;1.67;;;;;;;;;;4937882;29;20564;-84
2022/06/27 02:46:13;;;;;;;2.17;1.53;;;;;;;;;;4931011;29;20200;-84
2022/06/27 02:49:17;;;;;;;1.63;1.53;;;;;;;;;;4920418;29;20176;-84
2022/06/27 02:52:35;;;;;;;1.60;1.50;;;;;;;;;;4931864;29;20180;-84
2022/06/27 02:55:49;;;;;;;4.53;1.73;;;;;;;;;;4944637;28;20191;-84
2022/06/27 02:59:06;;;;;;;1.70;1.60;;;;;;;;;;4910488;29;20636;-84
2022/06/27 03:02:13;;;;;;;1.60;1.50;;;;;;;;;;4909535;29;20548;-84
2022/06/27 03:05:36;;;;;;;1.90;1.50;;;;;;;;;;4931387;29;20576;-84
2022/06/27 03:08:46;;;;;;;4.03;1.77;;;;;;;;;;4958634;28;20206;-84
2022/06/27 03:11:50;;;;;;;3.60;2.00;;;;;;;;;;4959708;28;20226;-84
2022/06/27 03:14:54;;;;;;;2.63;1.60;;;;;;;;;;4954397;28;20183;-84
2022/06/27 03:17:58;;;;;;;2.93;1.50;;;;;;;;;;4938005;29;20188;-84
2022/06/27 03:21:06;;;;;;;2.30;1.70;;;;;;;;;;4929684;29;20231;-84
2022/06/27 03:24:14;;;;;;;3.10;1.40;;;;;;;;;;4919245;29;20208;-84
2022/06/27 03:27:20;;;;;;;4.23;1.67;;;;;;;;;;4919253;29;20637;-82
2022/06/27 03:30:30;;;;;;;4.73;1.60;;;;;;;;;;4918764;29;20584;-82
2022/06/27 03:33:34;;;;;;;3.03;1.77;;;;;;;;;;4918690;29;20647;-82
2022/06/27 03:36:59;;;;;;;2.17;1.40;;;;;;;;;;4935222;29;20184;-82
2022/06/27 03:40:04;;;;;;;3.43;1.80;;;;;;;;;;4941004;29;20188;-82
2022/06/27 03:43:13;;;;;;;3.30;1.63;;;;;;;;;;4918267;28;20191;-82
2022/06/27 03:46:18;;;;;;;1.90;1.77;;;;;;;;;;4944455;29;20196;-82
2022/06/27 03:52:50;;;;;;;1.97;1.60;;;;;;;;;;4967684;28;20183;-82
2022/06/27 03:55:54;;;;;;;3.97;2.10;;;;;;;;;;4936780;29;20192;-82
2022/06/27 03:58:58;;;;;;;5.43;2.07;;;;;;;;;;4920086;29;20208;-82
2022/06/27 04:02:02;;;;;;;2.07;1.70;;;;;;;;;;4919361;29;20224;-82
2022/06/27 04:05:18;;;;;;;2.93;1.90;;;;;;;;;;4924413;28;20214;-82
2022/06/27 04:08:22;;;;;;;1.70;1.60;;;;;;;;;;4958436;28;20198;-82
2022/06/27 04:11:26;;;;;;;4.77;2.00;;;;;;;;;;4947816;28;20214;-83
2022/06/27 04:14:33;;;;;;;2.50;2.03;;;;;;;;;;4958363;28;20199;-82
2022/06/27 04:17:56;;;;;;;2.10;1.60;;;;;;;;;;4978425;28;20187;-82
2022/06/27 04:21:29;;;;;;;4.70;1.93;;;;;;;;;;5005358;23;20242;-83
2022/06/27 04:24:42;;;;;;;3.70;1.90;;;;;;;;;;4944615;28;20206;-84
2022/06/27 04:27:50;;;;;;;6.33;1.70;;;;;;;;;;4972040;28;20170;-83
2022/06/27 04:30:55;;;;;;;2.27;1.63;;;;;;;;;;4951144;28;20218;-85
2022/06/27 04:33:59;;;;;;;3.40;1.70;;;;;;;;;;4923367;29;20187;-83
2022/06/27 04:37:05;;;;;;;5.63;1.83;;;;;;;;;;4925835;29;20532;-84
2022/06/27 04:40:17;;;;;;;3.17;2.00;;;;;;;;;;4904935;29;20192;-83
2022/06/27 04:43:21;;;;;;;2.20;1.80;;;;;;;;;;4915248;29;20188;-83
2022/06/27 04:46:27;;;;;;;3.10;2.00;;;;;;;;;;4911129;29;20215;-84
2022/06/27 04:49:50;;;;;;;3.37;1.70;;;;;;;;;;4924794;29;20184;-83
2022/06/27 04:52:55;;;;;;;4.53;1.93;;;;;;;;;;4929221;28;20535;-84
2022/06/27 04:55:59;;;;;;;2.30;2.10;;;;;;;;;;4948697;29;20187;-84
2022/06/27 04:59:04;;;;;;;2.50;1.90;;;;;;;;;;4942242;28;20198;-83
2022/06/27 05:02:10;;;;;;;2.23;2.00;;;;;;;;;;4956689;28;20218;-83
2022/06/27 05:05:15;;;;;;;7.40;2.00;;;;;;;;;;4955803;28;20662;-83
2022/06/27 05:08:20;;;;;;;2.30;2.00;;;;;;;;;;4966099;28;20183;-83
2022/06/27 05:11:25;;;;;;;6.10;2.00;;;;;;;;;;4942120;28;20558;-83
2022/06/27 05:14:29;;;;;;;3.43;2.17;;;;;;;;;;4943306;28;20187;-83
2022/06/27 05:17:35;;;;;;;3.73;1.83;;;;;;;;;;4943249;28;20191;-83
2022/06/27 05:20:42;;;;;;;4.40;2.00;;;;;;;;;;4962776;28;20708;-83
2022/06/27 05:23:46;;;;;;;2.23;1.90;;;;;;;;;;4952779;28;20183;-83
2022/06/27 05:26:50;;;;;;;3.03;1.83;;;;;;;;;;4953024;29;20195;-84
2022/06/27 05:29:55;;;;;;;3.03;1.90;;;;;;;;;;4923011;29;20527;-83
2022/06/27 05:33:09;;;;;;;3.40;2.43;;;;;;;;;;4934227;29;20191;-90
2022/06/27 06:32:17;;;;;;;2.57;2.10;;;;;;;;;;4958552;28;20231;-82
2022/06/27 06:35:23;;;;;;;5.20;2.03;;;;;;;;;;4936713;29;20176;-82
2022/06/27 06:38:27;;;;;;;4.13;1.87;;;;;;;;;;4936826;29;20187;-87
2022/06/27 06:41:32;;;;;;;4.87;2.30;;;;;;;;;;4924955;29;20215;-85
2022/06/27 06:44:36;;;;;;;2.30;2.00;;;;;;;;;;4935221;29;20188;-86
2022/06/27 06:48:14;;;;;;;2.77;2.20;;;;;;;;;;4950945;29;20192;-86
2022/06/27 06:51:20;;;;;;;3.30;1.97;;;;;;;;;;4924311;29;20215;-86
2022/06/27 06:54:26;;;;;;;2.47;2.23;;;;;;;;;;4924187;29;20205;-86
2022/06/27 06:57:30;;;;;;;3.10;2.30;;;;;;;;;;4924405;29;20219;-84
2022/06/27 07:00:35;;;;;;;3.50;2.23;;;;;;;;;;4924872;28;20709;-84
2022/06/27 07:03:38;;;;;;;2.90;2.50;;;;;;;;;;4940303;28;20184;-84
2022/06/27 07:06:43;;;;;;;2.10;1.90;;;;;;;;;;4934036;29;20213;-85
2022/06/27 07:09:47;;;;;;;4.57;2.30;;;;;;;;;;4927813;28;20668;-85
2022/06/27 07:12:52;;;;;;;5.47;2.50;;;;;;;;;;4939364;28;20193;-86
2022/06/27 07:15:56;;;;;;;4.17;2.10;;;;;;;;;;4927299;28;20186;-86
2022/06/27 07:19:00;;;;;;;5.73;2.13;;;;;;;;;;4947802;28;20201;-82
2022/06/27 07:22:07;;;;;;;5.27;2.40;;;;;;;;;;4912939;29;20231;-85
2022/06/27 07:25:11;;;;;;;7.60;2.13;;;;;;;;;;4926354;29;20200;-86
2022/06/27 07:28:15;;;;;;;3.07;2.10;;;;;;;;;;4931297;28;20208;-85
2022/06/27 07:31:20;;;;;;;2.00;1.90;;;;;;;;;;4945256;29;20227;-85
2022/06/27 07:34:25;;;;;;;8.07;2.17;;;;;;;;;;4944778;29;20654;-85
2022/06/27 07:37:29;;;;;;;3.97;2.05;;;;;;;;;;4922993;29;20191;-85
2022/06/27 07:40:34;;;;;;;6.05;1.90;;;;;;;;;;4934237;29;20225;-85
2022/06/27 07:43:38;;;;;;;2.97;2.10;;;;;;;;;;4944758;29;20198;-86
2022/06/27 07:46:42;;;;;;;3.05;2.00;;;;;;;;;;4932845;29;20217;-87
2022/06/27 07:49:46;;;;;;;5.15;1.90;;;;;;;;;;4936097;28;20193;-87
2022/06/27 07:56:15;;;;;;;1.75;1.65;;;;;;;;;;4934319;29;20179;-87
2022/06/27 07:59:20;;;;;;;2.97;2.00;;;;;;;;;;4935818;29;20188;-82
2022/06/27 08:02:24;;;;;;;6.20;2.15;;;;;;;;;;4936776;29;20227;-87
2022/06/27 08:05:29;;;;;;;4.38;2.17;;;;;;;;;;4915066;29;20208;-87
2022/06/27 08:08:36;;;;;;;4.20;1.92;;;;;;;;;;4904271;29;20536;-87
2022/06/27 08:11:42;;;;;;;3.05;1.63;;;;;;;;;;4943118;28;20683;-87
2022/06/27 08:14:47;;;;;;;3.97;1.90;;;;;;;;;;4910682;28;20188;-86
2022/06/27 08:17:52;;;;;;;3.58;1.80;;;;;;;;;;4952289;28;20534;-86
2022/06/27 08:20:55;;;;;;;3.33;1.98;;;;;;;;;;4942084;28;20223;-86
2022/06/27 08:24:03;;;;;;;6.05;1.85;;;;;;;;;;4933490;28;20188;-87
2022/06/27 08:27:07;;;;;;;6.00;1.95;;;;;;;;;;4930938;29;20216;-87
2022/06/27 08:30:14;;;;;;;6.45;1.80;;;;;;;;;;4944552;29;20188;-87
2022/06/27 08:33:18;;;;;;;2.30;2.10;;;;;;;;;;4922287;29;20211;-88
2022/06/27 08:36:23;;;;;;;3.08;2.08;;;;;;;;;;4937811;29;20540;-88
2022/06/27 08:39:28;;;;;;;3.47;1.80;;;;;;;;;;4914899;29;20659;-88
2022/06/27 08:42:32;;;;;;;6.10;1.70;;;;;;;;;;4938049;28;20694;-88
2022/06/27 08:45:36;;;;;;;5.03;1.80;;;;;;;;;;4927941;28;20674;-87
2022/06/27 08:48:42;;;;;;;4.10;1.90;;;;;;;;;;4907348;29;20538;-87
2022/06/27 08:51:48;;;;;;;3.72;1.60;;;;;;;;;;4925387;29;20219;-87
2022/06/27 08:54:52;;;;;;;3.47;1.70;;;;;;;;;;4925202;29;20636;-88
2022/06/27 08:58:02;;;;;;;6.40;1.73;;;;;;;;;;4919885;28;20184;-87
2022/06/27 09:01:07;;;;;;;1.83;1.50;;;;;;;;;;4933906;29;20220;-87
2022/06/27 09:04:11;;;;;;;2.63;1.60;;;;;;;;;;4933948;29;20191;-87
2022/06/27 09:07:15;;;;;;;1.65;1.40;;;;;;;;;;4933453;29;20662;-87
2022/06/27 09:10:26;;;;;;;5.15;1.65;;;;;;;;;;4923736;28;20195;-87
2022/06/27 09:13:31;;;;;;;3.03;1.35;;;;;;;;;;4947792;28;20199;-88
2022/06/27 09:16:35;;;;;;;2.67;1.60;;;;;;;;;;4935411;29;20203;-87
2022/06/27 09:19:54;;;;;;;4.50;1.80;;;;;;;;;;4922236;29;20192;-88
2022/06/27 09:23:00;;;;;;;5.72;1.70;;;;;;;;;;4932949;29;20183;-87
2022/06/27 09:26:12;;;;;;;4.18;1.85;;;;;;;;;;4954643;28;20207;-87
2022/06/27 09:29:17;;;;;;;2.65;1.58;;;;;;;;;;4950761;28;20199;-87
2022/06/27 09:32:24;;;;;;;4.95;1.90;;;;;;;;;;4955575;28;20690;-87
2022/06/27 09:35:34;;;;;;;1.95;1.80;;;;;;;;;;4958164;28;20199;-88
2022/06/27 09:38:44;;;;;;;1.52;1.42;;;;;;;;;;4934166;28;20313;-88
2022/06/27 09:41:56;;;;;;;4.30;1.70;;;;;;;;;;4947554;29;20563;-89
2022/06/27 09:45:02;;;;;;;4.72;1.83;;;;;;;;;;4930427;28;20199;-90
2022/06/27 09:48:07;;;;;;;11.85;2.17;;;;;;;;;;4910303;28;20197;-88
2022/06/27 09:51:16;;;;;;;2.33;1.60;;;;;;;;;;4948752;28;20223;-88
2022/06/27 09:54:22;;;;;;;6.85;2.22;;;;;;;;;;4955780;28;20191;-88
2022/06/27 09:57:27;;;;;;;2.92;1.60;;;;;;;;;;4932847;29;20232;-88
2022/06/27 10:00:32;;;;;;;1.80;1.65;;;;;;;;;;4911812;29;20216;-88
2022/06/27 10:03:37;;;;;;;2.22;1.95;;;;;;;;;;4911686;29;20188;-87
2022/06/27 10:06:42;;;;;;;1.80;1.70;;;;;;;;;;4932009;29;20173;-88
2022/06/27 10:09:51;;;;;;;1.70;1.60;;;;;;;;;;4909469;29;20184;-88
2022/06/27 10:13:02;;;;;;;3.67;1.80;;;;;;;;;;4923375;28;20185;-86
2022/06/27 10:16:12;;;;;;;4.22;1.70;;;;;;;;;;4976997;28;20211;-86
2022/06/27 10:19:19;;;;;;;5.65;1.55;;;;;;;;;;4935844;29;20196;-87
2022/06/27 10:22:26;;;;;;;1.45;1.35;;;;;;;;;;4966893;23;20571;-84
2022/06/27 10:25:31;;;;;;;4.60;1.40;;;;;;;;;;4935154;29;20184;-84
2022/06/27 10:28:36;;;;;;;1.95;1.38;;;;;;;;;;4944687;28;20191;-84
2022/06/27 10:31:44;;;;;;;2.42;1.60;;;;;;;;;;4914531;29;20221;-84
2022/06/27 10:34:49;;;;;;;4.85;1.80;;;;;;;;;;4923361;29;20642;-83
2022/06/27 10:37:53;;;;;;;1.58;1.40;;;;;;;;;;4945282;28;20215;-83
2022/06/27 10:40:59;;;;;;;2.33;1.63;;;;;;;;;;4928774;29;20245;-83
2022/06/27 10:44:04;;;;;;;2.15;1.40;;;;;;;;;;4914193;29;20189;-83
2022/06/27 10:47:31;;;;;;;2.30;1.70;;;;;;;;;;4934599;29;20631;-83
2022/06/27 10:50:40;;;;;;;1.85;1.42;;;;;;;;;;4931979;29;20199;-84
2022/06/27 10:53:48;;;;;;;1.83;1.73;;;;;;;;;;4923219;29;20199;-84
2022/06/27 10:56:53;;;;;;;2.30;1.40;;;;;;;;;;4934357;29;20227;-84
2022/06/27 10:59:57;;;;;;;5.75;1.80;;;;;;;;;;4917322;29;20191;-84
2022/06/27 11:03:02;;;;;;;3.58;1.35;;;;;;;;;;4915287;29;20188;-84
2022/06/27 11:06:08;;;;;;;3.10;1.50;;;;;;;;;;4915404;29;20181;-84
2022/06/27 11:09:12;;;;;;;10.30;2.03;;;;;;;;;;4916207;29;20552;-84
2022/06/27 11:12:19;;;;;;;5.22;1.77;;;;;;;;;;4915640;29;20235;-84
2022/06/27 11:15:23;;;;;;;2.00;1.77;;;;;;;;;;4915264;29;20644;-84
2022/06/27 11:18:27;;;;;;;3.15;1.35;;;;;;;;;;4926039;29;20192;-84
2022/06/27 11:21:37;;;;;;;3.25;1.30;;;;;;;;;;4924615;29;20232;-84
2022/06/27 11:24:45;;;;;;;6.25;1.73;;;;;;;;;;4944522;29;20188;-84
2022/06/27 11:27:52;;;;;;;4.63;1.55;;;;;;;;;;4916800;29;20188;-84
2022/06/27 11:34:19;;;;;;;2.50;1.30;;;;;;;;;;4935979;29;20196;-84
2022/06/27 11:37:24;;;;;;;3.70;1.60;;;;;;;;;;4922018;29;20223;-84
2022/06/27 11:40:28;;;;;;;4.53;1.35;;;;;;;;;;4933731;29;20531;-84
2022/06/27 11:44:02;;;;;;;2.85;1.40;;;;;;;;;;4904269;29;20185;-84
2022/06/27 11:47:08;;;;;;;2.55;1.33;;;;;;;;;;4920941;29;20191;-84
2022/06/27 11:50:15;;;;;;;2.75;1.20;;;;;;;;;;4932761;28;20706;-84
2022/06/27 11:53:20;;;;;;;4.15;1.50;;;;;;;;;;4922903;29;20187;-83
2022/06/27 11:56:26;;;;;;;1.88;1.25;;;;;;;;;;4944574;29;20184;-83
2022/06/27 11:59:30;;;;;;;1.52;1.13;;;;;;;;;;4933742;29;20180;-83
2022/06/27 12:02:36;;;;;;;7.38;1.60;;;;;;;;;;4921732;29;20223;-84
2022/06/27 12:05:42;;;;;;;2.70;1.40;;;;;;;;;;4933446;29;20188;-84
2022/06/27 12:08:58;;;;;;;3.63;1.17;;;;;;;;;;4922350;29;20175;-84
2022/06/27 12:12:04;;;;;;;1.63;1.30;;;;;;;;;;4953919;29;20220;-83
2022/06/27 12:15:19;;;;;;;1.38;1.20;;;;;;;;;;4917670;29;20654;-84
2022/06/27 12:18:32;;;;;;;2.08;1.08;;;;;;;;;;4932623;29;20215;-84
2022/06/27 12:21:37;;;;;;;2.17;1.10;;;;;;;;;;4922723;29;20227;-84
2022/06/27 12:24:41;;;;;;;3.50;1.40;;;;;;;;;;4933121;29;20183;-86
2022/06/27 12:27:46;;;;;;;4.18;1.33;;;;;;;;;;4922277;29;20169;-84
2022/06/27 12:30:50;;;;;;;1.60;1.27;;;;;;;;;;4912440;29;20228;-84
2022/06/27 12:33:54;;;;;;;2.90;1.45;;;;;;;;;;4932365;29;20211;-84
2022/06/27 12:36:58;;;;;;;3.22;1.27;;;;;;;;;;4932889;29;20666;-84
2022/06/27 12:40:04;;;;;;;3.35;1.10;;;;;;;;;;4932960;29;20180;-85
2022/06/27 12:43:08;;;;;;;2.05;1.00;;;;;;;;;;4939868;29;20213;-84
2022/06/27 12:46:13;;;;;;;1.55;1.10;;;;;;;;;;4913885;29;20518;-84
2022/06/27 12:49:17;;;;;;;6.88;1.42;;;;;;;;;;4913607;29;20533;-84
2022/06/27 12:52:22;;;;;;;2.10;1.33;;;;;;;;;;4903272;29;20710;-84
2022/06/27 12:55:26;;;;;;;4.13;1.30;;;;;;;;;;4924146;29;20196;-86
2022/06/27 12:58:31;;;;;;;3.10;1.23;;;;;;;;;;4920592;29;20602;-84
2022/06/27 13:01:35;;;;;;;4.97;1.63;;;;;;;;;;4921600;28;20219;-83
2022/06/27 13:04:39;;;;;;;5.78;1.42;;;;;;;;;;4932202;29;20200;-83
2022/06/27 13:07:43;;;;;;;3.05;1.10;;;;;;;;;;4906471;29;20196;-84
2022/06/27 13:10:47;;;;;;;1.58;1.33;;;;;;;;;;4906602;29;20224;-84
2022/06/27 13:13:51;;;;;;;2.70;1.10;;;;;;;;;;4928072;29;20196;-84
2022/06/27 13:16:57;;;;;;;6.00;1.23;;;;;;;;;;4906259;29;20212;-84
2022/06/27 13:20:02;;;;;;;3.42;1.35;;;;;;;;;;4917111;29;20189;-84
2022/06/27 13:23:06;;;;;;;2.42;1.42;;;;;;;;;;4939006;29;20196;-84
2022/06/27 13:26:10;;;;;;;3.17;1.13;;;;;;;;;;4917171;29;20187;-84
2022/06/27 13:29:14;;;;;;;2.35;1.10;;;;;;;;;;4928071;29;20523;-84
2022/06/27 13:32:18;;;;;;;3.40;1.15;;;;;;;;;;4927830;29;20220;-84
2022/06/27 13:35:22;;;;;;;2.08;1.15;;;;;;;;;;4935744;29;20196;-83
2022/06/27 13:38:27;;;;;;;5.07;1.27;;;;;;;;;;4924743;29;20211;-84
2022/06/27 13:41:31;;;;;;;3.30;1.20;;;;;;;;;;4946157;29;20219;-84
2022/06/27 13:44:35;;;;;;;6.07;1.17;;;;;;;;;;4925095;29;20180;-84
2022/06/27 13:47:39;;;;;;;2.65;1.15;;;;;;;;;;4906898;29;20193;-83
2022/06/27 13:50:43;;;;;;;1.90;1.00;;;;;;;;;;4933129;29;20199;-83
2022/06/27 13:53:48;;;;;;;5.82;1.10;;;;;;;;;;4909252;29;20199;-83
2022/06/27 13:56:52;;;;;;;1.80;1.00;;;;;;;;;;4921226;29;20211;-83
2022/06/27 13:59:56;;;;;;;4.35;1.10;;;;;;;;;;4930109;29;20196;-83
2022/06/27 14:03:03;;;;;;;2.10;1.10;;;;;;;;;;4932378;29;20548;-83
2022/06/27 14:09:30;;;;;;;5.53;1.33;;;;;;;;;;4928465;29;20547;-83
2022/06/27 14:12:36;;;;;;;3.92;1.00;;;;;;;;;;4930258;29;20706;-83
2022/06/27 14:15:40;;;;;;;3.88;1.27;;;;;;;;;;4908098;29;20554;-84
2022/06/27 14:18:45;;;;;;;3.53;1.10;;;;;;;;;;4944015;29;20216;-84
2022/06/27 14:22:03;;;;;;;2.35;0.98;;;;;;;;;;4918762;29;20590;-84
2022/06/27 14:25:08;;;;;;;2.17;0.90;;;;;;;;;;4933545;29;20195;-84
2022/06/27 14:28:12;;;;;;;1.70;0.95;;;;;;;;;;4924569;29;20188;-84
2022/06/27 14:31:16;;;;;;;2.53;1.20;;;;;;;;;;4950413;29;20215;-83
2022/06/27 14:34:20;;;;;;;2.33;1.10;;;;;;;;;;4934590;29;20651;-83
2022/06/27 14:37:25;;;;;;;8.32;1.67;;;;;;;;;;4945210;29;20215;-83
2022/06/27 14:40:28;;;;;;;5.05;1.63;;;;;;;;;;4924973;29;20184;-86
2022/06/27 14:43:33;;;;;;;2.35;1.00;;;;;;;;;;4933407;29;20187;-84
2022/06/27 14:46:37;;;;;;;2.42;1.00;;;;;;;;;;4914229;29;20185;-84
2022/06/27 14:49:41;;;;;;;3.92;1.27;;;;;;;;;;4916155;29;20197;-84
2022/06/27 14:52:45;;;;;;;2.08;0.98;;;;;;;;;;4917896;29;20219;-84
2022/06/27 14:55:50;;;;;;;4.50;1.23;;;;;;;;;;4920088;29;20200;-84
2022/06/27 14:58:54;;;;;;;5.65;1.10;;;;;;;;;;4935652;29;20223;-84
2022/06/27 15:01:58;;;;;;;3.35;1.25;;;;;;;;;;4924859;29;20219;-86
2022/06/27 15:05:03;;;;;;;4.57;1.63;;;;;;;;;;4933252;29;20191;-84
2022/06/27 15:08:07;;;;;;;2.75;1.45;;;;;;;;;;4923806;29;20196;-84
2022/06/27 15:14:34;;;;;;;3.50;1.27;;;;;;;;;;4925439;29;20545;-83
2022/06/27 15:17:41;;;;;;;3.72;1.40;;;;;;;;;;4933471;29;20220;-83
2022/06/27 15:20:45;;;;;;;2.70;1.38;;;;;;;;;;4958596;29;20207;-83
2022/06/27 15:23:49;;;;;;;7.18;1.15;;;;;;;;;;4943567;29;20200;-83
2022/06/27 15:26:53;;;;;;;1.90;1.35;;;;;;;;;;4925099;29;20191;-84
2022/06/27 15:29:58;;;;;;;3.00;1.38;;;;;;;;;;4922452;29;20196;-84
2022/06/27 15:33:04;;;;;;;1.63;1.30;;;;;;;;;;4927602;29;20379;-88
2022/06/27 15:36:09;;;;;;;1.77;1.50;;;;;;;;;;4922945;29;20199;-83
2022/06/27 15:39:12;;;;;;;1.95;1.20;;;;;;;;;;4932876;29;20219;-83
2022/06/27 15:42:17;;;;;;;6.03;1.52;;;;;;;;;;4933935;29;20231;-83
2022/06/27 15:45:21;;;;;;;2.85;1.35;;;;;;;;;;4931548;29;20208;-83
2022/06/27 15:48:25;;;;;;;3.65;1.55;;;;;;;;;;4933818;29;20196;-83
2022/06/27 15:51:30;;;;;;;3.75;1.52;;;;;;;;;;4916892;29;20222;-83
2022/06/27 15:54:34;;;;;;;4.55;1.40;;;;;;;;;;4923628;29;20193;-83
2022/06/27 15:57:38;;;;;;;2.95;1.48;;;;;;;;;;4931704;29;20199;-83
2022/06/27 16:00:42;;;;;;;3.15;1.60;;;;;;;;;;4928802;29;20194;-83
2022/06/27 16:03:47;;;;;;;4.60;1.50;;;;;;;;;;4935963;29;20182;-82
2022/06/27 16:06:51;;;;;;;4.22;1.55;;;;;;;;;;4909293;29;20199;-86
2022/06/27 16:09:55;;;;;;;5.20;1.50;;;;;;;;;;4927857;29;20195;-86
2022/06/27 16:12:59;;;;;;;1.83;1.40;;;;;;;;;;4924950;29;20183;-85
2022/06/27 16:16:03;;;;;;;4.00;1.60;;;;;;;;;;4937145;29;20206;-89
2022/06/27 16:19:08;;;;;;;4.88;1.90;;;;;;;;;;4934857;29;20218;-84
2022/06/27 16:22:12;;;;;;;1.80;1.70;;;;;;;;;;4936454;29;20239;-83
2022/06/27 16:25:16;;;;;;;1.73;1.63;;;;;;;;;;4984336;23;20427;-85
2022/06/27 16:28:20;;;;;;;3.45;1.88;;;;;;;;;;4959343;28;20186;-85
2022/06/27 16:31:57;;;;;;;3.50;1.88;;;;;;;;;;4966007;28;20185;-85
2022/06/27 16:34:54;;;;;;;5.63;2.10;;;;;;;;;;4940091;29;20225;-84
2022/06/27 16:37:58;;;;;;;2.53;1.75;;;;;;;;;;4937258;29;20212;-84
2022/06/27 16:41:03;;;;;;;3.63;1.85;;;;;;;;;;4936808;29;20193;-84
2022/06/27 16:44:07;;;;;;;2.25;1.73;;;;;;;;;;4927500;29;20223;-85
2022/06/27 16:47:11;;;;;;;2.83;1.65;;;;;;;;;;4929388;28;20183;-84
2022/06/27 16:50:15;;;;;;;3.28;1.52;;;;;;;;;;4940095;28;20193;-84
2022/06/27 16:53:21;;;;;;;4.28;1.70;;;;;;;;;;4952401;28;20536;-84
2022/06/27 16:56:27;;;;;;;5.93;1.70;;;;;;;;;;4976294;28;20624;-84
2022/06/27 16:59:32;;;;;;;2.03;1.83;;;;;;;;;;4964374;28;20210;-84
2022/06/27 17:02:36;;;;;;;3.92;1.67;;;;;;;;;;4943252;28;20655;-84
2022/06/27 17:05:42;;;;;;;6.72;1.95;;;;;;;;;;4941815;28;20188;-84
2022/06/27 17:08:46;;;;;;;2.03;1.37;;;;;;;;;;4955005;28;20182;-85
2022/06/27 17:11:50;;;;;;;4.40;1.93;;;;;;;;;;4966877;28;20187;-85
2022/06/27 17:14:55;;;;;;;7.38;1.90;;;;;;;;;;4933485;28;20220;-86
2022/06/27 17:17:59;;;;;;;1.88;1.60;;;;;;;;;;4973334;28;20195;-84
2022/06/27 17:21:04;;;;;;;2.67;1.77;;;;;;;;;;4929200;28;20655;-84
2022/06/27 17:24:08;;;;;;;4.45;1.70;;;;;;;;;;4944287;28;20222;-85
2022/06/27 17:27:13;;;;;;;3.20;1.75;;;;;;;;;;4955354;28;20202;-85
2022/06/27 17:30:17;;;;;;;2.87;1.60;;;;;;;;;;4928005;28;20574;-85
2022/06/27 17:33:23;;;;;;;3.33;1.90;;;;;;;;;;4930524;28;20183;-85
2022/06/27 17:36:27;;;;;;;3.40;1.90;;;;;;;;;;4933730;28;20189;-85
2022/06/27 17:39:31;;;;;;;5.90;1.80;;;;;;;;;;4936290;29;20208;-85
2022/06/27 17:42:36;;;;;;;6.03;1.70;;;;;;;;;;4941247;29;20196;-85
2022/06/27 17:45:40;;;;;;;3.10;1.87;;;;;;;;;;4933601;29;20189;-85
2022/06/27 17:48:44;;;;;;;1.73;1.50;;;;;;;;;;4924563;29;20180;-84
2022/06/27 17:51:48;;;;;;;3.90;1.80;;;;;;;;;;4937945;29;20189;-85
2022/06/27 17:54:53;;;;;;;2.70;1.60;;;;;;;;;;4948416;29;20701;-85
2022/06/27 17:57:57;;;;;;;2.03;1.30;;;;;;;;;;4930171;28;20198;-85
2022/06/27 18:01:01;;;;;;;2.77;1.40;;;;;;;;;;4955481;28;20202;-85
2022/06/27 18:04:06;;;;;;;8.63;1.87;;;;;;;;;;4947421;28;20219;-86
2022/06/27 18:07:10;;;;;;;1.97;1.30;;;;;;;;;;4926623;29;20201;-86
2022/06/27 18:10:14;;;;;;;1.57;1.23;;;;;;;;;;4925712;29;20637;-88
2022/06/27 18:13:18;;;;;;;8.93;1.40;;;;;;;;;;4935527;28;20208;-88
2022/06/27 18:16:23;;;;;;;2.80;1.50;;;;;;;;;;4924976;29;20196;-88
2022/06/27 18:19:42;;;;;;;2.23;1.27;;;;;;;;;;4936486;28;20211;-89
2022/06/27 18:22:46;;;;;;;4.60;1.70;;;;;;;;;;4925306;29;20192;-89
2022/06/27 18:25:50;;;;;;;4.43;1.70;;;;;;;;;;4924597;29;20199;-88
2022/06/27 18:28:54;;;;;;;3.47;1.50;;;;;;;;;;4954914;28;20185;-88
2022/06/27 18:31:58;;;;;;;4.10;1.60;;;;;;;;;;4927515;29;20218;-88
2022/06/27 18:35:03;;;;;;;3.80;1.70;;;;;;;;;;4927312;29;20248;-88
2022/06/27 18:38:07;;;;;;;4.60;1.60;;;;;;;;;;4917002;29;20189;-89
2022/06/27 18:41:11;;;;;;;3.00;1.40;;;;;;;;;;4917675;29;20640;-89
2022/06/27 18:44:14;;;;;;;6.37;1.80;;;;;;;;;;4917927;29;20224;-90
2022/06/27 18:47:19;;;;;;;3.40;1.53;;;;;;;;;;4917314;29;20180;-89
2022/06/27 18:50:23;;;;;;;5.50;1.67;;;;;;;;;;4928013;29;20180;-89
2022/06/27 18:53:29;;;;;;;3.20;1.80;;;;;;;;;;4916431;29;20556;-88
2022/06/27 18:56:33;;;;;;;11.43;1.97;;;;;;;;;;4916851;29;20196;-89
2022/06/27 18:59:37;;;;;;;4.00;1.73;;;;;;;;;;4929878;29;20231;-88
2022/06/27 19:02:42;;;;;;;6.67;2.30;;;;;;;;;;4939902;28;20190;-87
2022/06/27 19:05:47;;;;;;;11.00;2.60;;;;;;;;;;4956156;28;20186;-88
2022/06/27 19:08:51;;;;;;;5.53;2.80;;;;;;;;;;4944577;28;20569;-87
2022/06/27 19:11:55;;;;;;;3.23;2.53;;;;;;;;;;4979417;28;20519;-84
2022/06/27 19:14:59;;;;;;;3.00;2.70;;;;;;;;;;4968179;28;20214;-85
2022/06/27 19:18:04;;;;;;;5.20;2.97;;;;;;;;;;4930861;29;20203;-85
2022/06/27 19:21:08;;;;;;;7.80;2.77;;;;;;;;;;4956671;28;20191;-84
2022/06/27 19:24:13;;;;;;;4.13;2.70;;;;;;;;;;4943594;29;20702;-84
2022/06/27 19:27:17;;;;;;;3.40;2.80;;;;;;;;;;4942195;28;20195;-84
2022/06/27 19:30:21;;;;;;;5.60;2.67;;;;;;;;;;4970137;28;20183;-85
2022/06/27 19:33:26;;;;;;;6.13;2.93;;;;;;;;;;4940681;28;20227;-85
2022/06/27 19:36:30;;;;;;;4.37;3.07;;;;;;;;;;4927115;29;20192;-85
2022/06/27 19:39:34;;;;;;;14.40;4.23;;;;;;;;;;4949796;28;20560;-85
2022/06/27 19:42:40;;;;;;;7.60;4.90;;;;;;;;;;4939642;28;20682;-85
2022/06/27 19:45:44;;;;;;;13.33;4.70;;;;;;;;;;4968507;28;20175;-85
2022/06/27 19:48:48;;;;;;;9.57;5.10;;;;;;;;;;4957020;28;20179;-85